Time;durP1;ratioP1;P1;durP2;ratioP2;P2;SDS_P1;SDS_P2;PMS_P1;PMS_P2;Temp;Humidity;BMP_temperature;BMP_pressure;BME280_temperature;BME280_humidity;BME280_pressure;Samples;Min_cycle;Max_cycle;Signal;HPM_P1;HPM_P2
2022/04/17 00:01:02;;;;;;;5.78;3.15;;;6.10;62.80;;;;;;5006977;28;20453;-83
2022/04/17 00:03:28;;;;;;;6.30;3.40;;;6.10;62.80;;;;;;5013959;28;20378;-83
2022/04/17 00:05:53;;;;;;;3.92;3.10;;;6.00;62.70;;;;;;5022732;28;20029;-83
2022/04/17 00:08:19;;;;;;;4.32;3.33;;;6.00;62.80;;;;;;5012540;28;20355;-82
2022/04/17 00:10:46;;;;;;;3.88;3.08;;;6.00;62.90;;;;;;5016611;28;20025;-83
2022/04/17 00:13:12;;;;;;;3.60;3.30;;;6.00;62.90;;;;;;5020548;28;20037;-83
2022/04/17 00:15:37;;;;;;;4.53;3.40;;;6.00;62.90;;;;;;5005817;28;20485;-80
2022/04/17 00:18:03;;;;;;;5.65;3.58;;;5.90;62.90;;;;;;5026353;28;20134;-83
2022/04/17 00:20:28;;;;;;;5.78;3.33;;;5.90;63.00;;;;;;5026329;28;20505;-82
2022/04/17 00:22:54;;;;;;;3.80;3.20;;;5.90;63.10;;;;;;5016293;28;20097;-83
2022/04/17 00:25:20;;;;;;;3.75;3.20;;;5.80;63.10;;;;;;5025710;28;20034;-82
2022/04/17 00:27:46;;;;;;;4.38;3.55;;;5.80;63.00;;;;;;5020973;28;20457;-82
2022/04/17 00:30:12;;;;;;;6.38;3.35;;;5.80;63.20;;;;;;5036016;28;20374;-82
2022/04/17 00:32:38;;;;;;;3.90;3.35;;;5.70;63.30;;;;;;5012226;28;22076;-80
2022/04/17 00:35:05;;;;;;;5.13;3.80;;;5.70;63.40;;;;;;5024975;28;20026;-83
2022/04/17 00:37:30;;;;;;;3.35;3.05;;;5.70;63.50;;;;;;5036254;28;20097;-83
2022/04/17 00:39:56;;;;;;;4.30;3.17;;;5.60;63.40;;;;;;5040932;28;20374;-82
2022/04/17 00:42:21;;;;;;;3.80;3.38;;;5.60;63.50;;;;;;5048905;28;20095;-80
2022/04/17 00:44:47;;;;;;;5.78;3.05;;;5.60;63.60;;;;;;5026517;28;20022;-81
2022/04/17 00:47:16;;;;;;;3.67;3.38;;;5.50;63.50;;;;;;5034536;28;20025;-80
2022/04/17 00:49:46;;;;;;;4.55;3.15;;;5.50;63.60;;;;;;5043705;28;20025;-81
2022/04/17 00:52:12;;;;;;;4.38;3.15;;;5.50;63.70;;;;;;5023557;28;20028;-79
2022/04/17 00:54:45;;;;;;;3.47;2.75;;;5.40;63.60;;;;;;5017349;28;20182;-82
2022/04/17 00:57:18;;;;;;;4.47;3.00;;;5.30;63.90;;;;;;5041756;28;20040;-83
2022/04/17 00:59:45;;;;;;;3.45;3.15;;;5.20;63.90;;;;;;5026978;28;20026;-80
2022/04/17 01:02:14;;;;;;;4.38;3.47;;;5.20;64.00;;;;;;5036391;28;20040;-83
2022/04/17 01:04:40;;;;;;;5.45;3.20;;;5.10;64.10;;;;;;5032599;28;20057;-83
2022/04/17 01:07:06;;;;;;;5.18;3.00;;;5.10;64.10;;;;;;5012566;28;20046;-83
2022/04/17 01:09:32;;;;;;;4.50;3.22;;;5.10;64.20;;;;;;5005862;28;20053;-83
2022/04/17 01:11:59;;;;;;;6.07;3.45;;;5.00;64.20;;;;;;5030382;28;20043;-81
2022/04/17 01:14:28;;;;;;;3.72;2.90;;;5.00;64.30;;;;;;5024695;28;20030;-80
2022/04/17 01:16:54;;;;;;;4.10;3.00;;;5.00;64.40;;;;;;5032122;28;20033;-83
2022/04/17 01:19:19;;;;;;;4.00;2.97;;;5.00;64.40;;;;;;5016639;28;20033;-78
2022/04/17 01:21:46;;;;;;;3.78;3.22;;;5.00;65.10;;;;;;5033557;28;20029;-80
2022/04/17 01:26:59;;;;;;;4.97;3.00;;;4.90;64.50;;;;;;5038510;28;20040;-84
2022/04/17 01:29:43;;;;;;;4.80;3.03;;;4.90;64.60;;;;;;5043682;28;20025;-83
2022/04/17 01:32:11;;;;;;;4.00;2.97;;;5.00;64.80;;;;;;5018447;28;20022;-81
2022/04/17 01:34:37;;;;;;;4.15;2.97;;;5.00;64.60;;;;;;5027348;28;20095;-83
2022/04/17 01:37:04;;;;;;;3.08;2.75;;;4.90;64.60;;;;;;5036885;28;20022;-82
2022/04/17 01:39:30;;;;;;;5.22;3.20;;;4.90;64.60;;;;;;5016846;28;20025;-83
2022/04/17 01:41:57;;;;;;;5.10;2.88;;;4.90;64.70;;;;;;5037978;28;20040;-83
2022/04/17 01:44:24;;;;;;;5.70;2.92;;;4.90;64.80;;;;;;5033697;28;20127;-80
2022/04/17 01:46:50;;;;;;;4.72;3.20;;;4.90;64.80;;;;;;5020913;28;20026;-81
2022/04/17 01:49:16;;;;;;;4.32;2.97;;;4.90;64.90;;;;;;5036032;28;20014;-83
2022/04/17 01:51:43;;;;;;;3.70;2.60;;;4.90;64.90;;;;;;5031943;28;20034;-83
2022/04/17 01:54:11;;;;;;;4.55;2.92;;;4.90;64.80;;;;;;5013637;28;20094;-81
2022/04/17 01:56:38;;;;;;;4.15;2.78;;;4.90;64.80;;;;;;5031849;28;20170;-80
2022/04/17 01:59:06;;;;;;;3.35;2.83;;;4.90;64.80;;;;;;5018865;28;20089;-83
2022/04/17 02:01:37;;;;;;;3.55;3.05;;;4.90;64.90;;;;;;5026793;28;20025;-83
2022/04/17 02:04:04;;;;;;;4.40;2.85;;;4.90;65.10;;;;;;5029932;28;20089;-83
2022/04/17 02:06:30;;;;;;;3.17;2.92;;;4.90;65.00;;;;;;5019747;28;20075;-82
2022/04/17 02:08:56;;;;;;;3.75;2.53;;;4.90;65.00;;;;;;5033007;28;20025;-82
2022/04/17 02:11:25;;;;;;;5.28;2.97;;;4.90;65.00;;;;;;5019307;28;20045;-83
2022/04/17 02:13:50;;;;;;;3.10;2.88;;;4.90;65.10;;;;;;5038131;28;20133;-84
2022/04/17 02:16:20;;;;;;;3.33;3.03;;;4.90;65.10;;;;;;5036638;28;20040;-82
2022/04/17 02:18:47;;;;;;;4.22;2.85;;;4.90;65.10;;;;;;5030985;28;20493;-79
2022/04/17 02:21:14;;;;;;;3.05;2.38;;;4.90;65.20;;;;;;5023411;28;20049;-80
2022/04/17 02:23:43;;;;;;;3.30;2.50;;;4.90;65.20;;;;;;5029361;28;20060;-80
2022/04/17 02:26:10;;;;;;;7.00;3.10;;;4.90;65.20;;;;;;5038270;28;20133;-82
2022/04/17 02:28:37;;;;;;;4.60;3.08;;;4.90;65.20;;;;;;5038885;28;20450;-83
2022/04/17 02:31:04;;;;;;;4.78;3.08;;;4.90;65.20;;;;;;5029185;28;20022;-80
2022/04/17 02:33:30;;;;;;;3.13;2.83;;;4.80;65.40;;;;;;5014663;28;20040;-81
2022/04/17 02:35:56;;;;;;;4.10;2.75;;;4.80;65.40;;;;;;5029797;28;20026;-81
2022/04/17 02:38:22;;;;;;;6.30;3.10;;;4.80;65.50;;;;;;5032369;28;20026;-82
2022/04/17 02:40:47;;;;;;;3.15;2.85;;;4.80;65.50;;;;;;5024884;28;20030;-81
2022/04/17 02:43:13;;;;;;;3.47;2.83;;;4.80;65.50;;;;;;5025628;28;20030;-81
2022/04/17 02:45:39;;;;;;;5.15;3.00;;;4.80;65.40;;;;;;5017835;28;20029;-81
2022/04/17 02:48:05;;;;;;;6.95;3.10;;;4.80;65.40;;;;;;5038365;28;20481;-82
2022/04/17 02:50:31;;;;;;;4.20;2.88;;;4.80;65.40;;;;;;5039045;28;20056;-79
2022/04/17 02:52:57;;;;;;;5.50;3.25;;;4.70;65.50;;;;;;5025498;28;20892;-83
2022/04/17 02:55:23;;;;;;;5.60;3.03;;;4.70;65.50;;;;;;5037907;28;20162;-81
2022/04/17 02:57:49;;;;;;;2.80;2.60;;;4.70;65.60;;;;;;5031932;28;20026;-83
2022/04/17 03:00:15;;;;;;;5.00;2.78;;;4.60;65.60;;;;;;5023152;28;20449;-83
2022/04/17 03:05:36;;;;;;;5.07;2.80;;;4.50;65.70;;;;;;5021150;28;20094;-80
2022/04/17 03:08:04;;;;;;;3.03;2.72;;;4.50;65.70;;;;;;5028633;28;20072;-80
2022/04/17 03:10:30;;;;;;;4.50;3.03;;;4.50;65.70;;;;;;5017863;28;20025;-82
2022/04/17 03:12:56;;;;;;;3.95;2.83;;;4.50;65.80;;;;;;5032254;28;20022;-80
2022/04/17 03:15:22;;;;;;;4.25;2.55;;;4.50;65.80;;;;;;5017788;28;20034;-83
2022/04/17 03:17:48;;;;;;;3.00;2.70;;;4.40;65.80;;;;;;5013829;28;20400;-80
2022/04/17 03:20:14;;;;;;;3.08;2.75;;;4.30;65.80;;;;;;5016664;28;20021;-80
2022/04/17 03:22:41;;;;;;;3.10;2.80;;;4.30;65.90;;;;;;5035630;28;20083;-81
2022/04/17 03:25:08;;;;;;;4.53;3.15;;;4.30;66.10;;;;;;5017303;28;20674;-80
2022/04/17 03:27:34;;;;;;;2.92;2.72;;;4.20;66.00;;;;;;5024618;28;20038;-80
2022/04/17 03:29:59;;;;;;;3.75;2.85;;;4.20;66.10;;;;;;5038043;28;20052;-82
2022/04/17 03:32:25;;;;;;;4.07;3.05;;;4.20;66.20;;;;;;5030848;28;20083;-82
2022/04/17 03:34:51;;;;;;;4.22;3.08;;;4.10;66.20;;;;;;5037238;28;20083;-83
2022/04/17 03:37:17;;;;;;;5.43;2.97;;;4.10;66.30;;;;;;5017722;28;20082;-80
2022/04/17 03:39:44;;;;;;;6.22;2.88;;;4.00;66.30;;;;;;5042540;28;20049;-82
2022/04/17 03:42:10;;;;;;;3.85;2.72;;;4.00;66.40;;;;;;5029807;28;20105;-81
2022/04/17 03:44:36;;;;;;;3.92;3.15;;;4.00;66.40;;;;;;5013179;28;20517;-80
2022/04/17 03:47:02;;;;;;;3.75;2.88;;;3.90;66.40;;;;;;5017734;28;20022;-83
2022/04/17 03:49:29;;;;;;;4.07;3.08;;;3.80;66.40;;;;;;5026229;28;20696;-82
2022/04/17 03:51:55;;;;;;;3.22;2.90;;;3.80;66.60;;;;;;5016150;28;20025;-83
2022/04/17 03:54:21;;;;;;;3.40;2.92;;;3.70;66.70;;;;;;5008273;28;20545;-82
2022/04/17 03:56:47;;;;;;;4.47;3.28;;;3.70;66.80;;;;;;5024092;28;20064;-81
2022/04/17 03:59:13;;;;;;;3.08;2.70;;;3.70;66.90;;;;;;5024265;28;20068;-81
2022/04/17 04:01:40;;;;;;;4.53;3.03;;;3.60;66.80;;;;;;5034918;28;20030;-83
2022/04/17 04:04:08;;;;;;;4.25;2.88;;;3.60;67.00;;;;;;5014129;28;20500;-79
2022/04/17 04:06:34;;;;;;;5.85;3.00;;;3.60;67.10;;;;;;5007980;28;20479;-83
2022/04/17 04:08:59;;;;;;;3.20;2.78;;;3.50;67.00;;;;;;5023056;28;20032;-82
2022/04/17 04:11:26;;;;;;;5.75;3.15;;;3.50;67.10;;;;;;5031227;28;20041;-83
2022/04/17 04:13:52;;;;;;;5.47;3.03;;;3.50;67.20;;;;;;5016026;28;20035;-82
2022/04/17 04:16:18;;;;;;;6.30;3.05;;;3.40;67.50;;;;;;5017655;28;20071;-81
2022/04/17 04:18:43;;;;;;;2.95;2.65;;;3.40;67.50;;;;;;5021882;28;20041;-81
2022/04/17 04:21:09;;;;;;;6.95;3.03;;;3.40;67.50;;;;;;5007141;28;20371;-80
2022/04/17 04:23:35;;;;;;;3.75;2.85;;;3.40;67.60;;;;;;5003332;28;20030;-80
2022/04/17 04:26:03;;;;;;;3.53;2.90;;;3.40;67.50;;;;;;5027459;28;20030;-81
2022/04/17 04:28:38;;;;;;;4.20;3.45;;;3.30;67.50;;;;;;5017539;28;20026;-84
2022/04/17 04:31:11;;;;;;;3.42;2.88;;;3.30;67.60;;;;;;5027153;28;20101;-81
2022/04/17 04:33:39;;;;;;;5.03;2.97;;;3.20;67.70;;;;;;5021485;28;20022;-81
2022/04/17 04:36:06;;;;;;;4.32;3.00;;;3.20;67.70;;;;;;5010413;28;20025;-83
2022/04/17 04:38:32;;;;;;;3.75;2.83;;;3.10;67.80;;;;;;5003174;28;20014;-82
2022/04/17 04:41:01;;;;;;;4.05;3.28;;;3.10;68.10;;;;;;5012066;28;20029;-83
2022/04/17 04:43:27;;;;;;;8.02;3.22;;;3.10;68.30;;;;;;5032988;28;20022;-82
2022/04/17 04:46:08;;;;;;;3.85;3.22;;;3.20;68.50;;;;;;5005461;28;20056;-83
2022/04/17 04:51:19;;;;;;;3.78;3.40;;;3.30;68.60;;;;;;5022840;28;20060;-80
2022/04/17 04:53:45;;;;;;;3.47;3.17;;;3.30;68.50;;;;;;5030086;28;20358;-82
2022/04/17 04:56:12;;;;;;;5.03;3.42;;;3.30;68.50;;;;;;5003580;28;20028;-79
2022/04/17 04:58:38;;;;;;;4.10;3.13;;;3.40;68.70;;;;;;5032218;28;20405;-79
2022/04/17 05:01:04;;;;;;;4.95;3.40;;;3.40;68.70;;;;;;5009463;28;20021;-82
2022/04/17 05:03:29;;;;;;;6.75;3.60;;;3.50;68.70;;;;;;5017067;28;20253;-81
2022/04/17 05:05:55;;;;;;;6.22;3.47;;;3.50;68.80;;;;;;5007826;28;20508;-82
2022/04/17 05:08:20;;;;;;;5.28;3.33;;;3.60;68.90;;;;;;5031754;28;20036;-81
2022/04/17 05:10:47;;;;;;;5.55;3.22;;;3.70;68.80;;;;;;5011278;28;20049;-81
2022/04/17 05:13:13;;;;;;;4.47;3.17;;;3.80;68.70;;;;;;5036471;28;21516;-82
2022/04/17 05:15:39;;;;;;;4.30;3.03;;;3.90;68.50;;;;;;5028131;28;20033;-83
2022/04/17 05:18:04;;;;;;;7.55;3.50;;;4.00;68.50;;;;;;5034787;28;20059;-81
2022/04/17 05:20:33;;;;;;;6.30;4.05;;;4.10;68.50;;;;;;5007317;28;20048;-83
2022/04/17 05:23:17;;;;;;;5.07;4.00;;;4.20;68.30;;;;;;5017025;28;20029;-81
2022/04/17 05:25:49;;;;;;;6.75;3.05;;;4.30;68.30;;;;;;5031043;28;20026;-83
2022/04/17 05:28:15;;;;;;;5.30;3.37;;;4.40;68.30;;;;;;5000516;28;20028;-81
2022/04/17 05:30:42;;;;;;;5.30;3.00;;;4.40;68.30;;;;;;5004104;28;20308;-82
2022/04/17 05:33:08;;;;;;;3.97;3.40;;;4.40;68.30;;;;;;5016655;28;20022;-82
2022/04/17 05:35:34;;;;;;;3.40;3.10;;;4.50;68.40;;;;;;5004189;28;20026;-82
2022/04/17 05:37:59;;;;;;;3.30;3.00;;;4.50;68.50;;;;;;5015671;28;20477;-82
2022/04/17 05:40:25;;;;;;;5.00;2.97;;;4.60;68.60;;;;;;5023990;28;20029;-81
2022/04/17 05:42:51;;;;;;;3.22;2.92;;;4.70;68.60;;;;;;5027887;28;20095;-80
2022/04/17 05:45:17;;;;;;;3.22;2.90;;;4.70;68.40;;;;;;5032090;28;20025;-83
2022/04/17 05:47:43;;;;;;;5.80;2.92;;;4.80;68.60;;;;;;5021619;28;22027;-83
2022/04/17 05:50:09;;;;;;;6.43;2.78;;;4.90;68.70;;;;;;5025742;28;20048;-84
2022/04/17 05:52:35;;;;;;;3.72;2.97;;;4.90;68.70;;;;;;5017233;28;20112;-80
2022/04/17 05:55:01;;;;;;;3.25;2.85;;;4.90;68.80;;;;;;5017828;28;20052;-81
2022/04/17 05:57:26;;;;;;;4.95;3.13;;;4.90;68.90;;;;;;5022779;28;20025;-79
2022/04/17 05:59:52;;;;;;;7.18;3.50;;;5.00;69.00;;;;;;5024844;28;20040;-79
2022/04/17 06:02:18;;;;;;;3.65;2.67;;;5.00;69.10;;;;;;5041430;28;20028;-80
2022/04/17 06:04:44;;;;;;;2.90;2.60;;;5.00;69.10;;;;;;5016037;28;20095;-79
2022/04/17 06:07:09;;;;;;;3.47;3.00;;;5.10;69.10;;;;;;5018105;28;20037;-82
2022/04/17 06:09:35;;;;;;;3.83;2.92;;;5.10;69.20;;;;;;5029277;28;20030;-82
2022/04/17 06:12:01;;;;;;;3.17;2.58;;;5.20;69.10;;;;;;5008405;28;20032;-83
2022/04/17 06:14:27;;;;;;;4.05;2.63;;;5.30;69.00;;;;;;5029940;28;20045;-80
2022/04/17 06:16:53;;;;;;;3.28;2.38;;;5.30;69.00;;;;;;5022457;28;20025;-80
2022/04/17 06:19:18;;;;;;;4.97;2.47;;;5.30;69.00;;;;;;5037953;28;20048;-81
2022/04/17 06:21:44;;;;;;;3.13;2.42;;;5.30;68.90;;;;;;5021668;28;20042;-81
2022/04/17 06:24:10;;;;;;;2.70;2.50;;;5.30;69.10;;;;;;5032824;28;20413;-82
2022/04/17 06:26:35;;;;;;;3.17;2.50;;;5.30;69.10;;;;;;5018851;28;20079;-82
2022/04/17 06:29:05;;;;;;;5.35;2.88;;;5.40;69.10;;;;;;5011247;28;20025;-84
2022/04/17 06:31:31;;;;;;;3.58;3.00;;;5.40;69.20;;;;;;5033721;28;20386;-81
2022/04/17 06:33:57;;;;;;;4.50;2.92;;;5.50;69.30;;;;;;5033142;28;20036;-80
2022/04/17 06:36:22;;;;;;;4.70;3.13;;;5.70;69.30;;;;;;5015860;28;20033;-80
2022/04/17 06:38:48;;;;;;;3.20;2.88;;;5.90;69.20;;;;;;5000909;28;20121;-80
2022/04/17 06:41:13;;;;;;;3.72;2.90;;;6.10;69.30;;;;;;5039592;28;20049;-84
2022/04/17 06:43:39;;;;;;;4.72;3.10;;;6.30;69.10;;;;;;5032183;28;20085;-81
2022/04/17 06:46:05;;;;;;;6.53;2.95;;;6.50;69.10;;;;;;5021637;28;20029;-81
2022/04/17 06:48:30;;;;;;;4.50;3.05;;;6.70;68.80;;;;;;5014292;28;20034;-82
2022/04/17 06:50:56;;;;;;;3.15;2.83;;;6.90;68.60;;;;;;5009602;28;20049;-83
2022/04/17 06:53:22;;;;;;;7.20;3.00;;;7.00;68.40;;;;;;5031752;28;20051;-82
2022/04/17 06:55:49;;;;;;;3.50;2.63;;;7.20;68.30;;;;;;5018937;28;20113;-80
2022/04/17 06:58:15;;;;;;;2.47;1.92;;;7.50;68.50;;;;;;5013506;28;20038;-82
2022/04/17 07:00:41;;;;;;;4.72;2.75;;;7.70;68.30;;;;;;5008607;28;20033;-81
2022/04/17 07:03:07;;;;;;;4.35;2.40;;;7.90;68.10;;;;;;5015807;28;20041;-83
2022/04/17 07:05:33;;;;;;;3.38;2.20;;;8.20;67.90;;;;;;5012762;28;20393;-83
2022/04/17 07:08:01;;;;;;;3.90;2.20;;;8.40;67.60;;;;;;5015605;28;20021;-82
2022/04/17 07:10:28;;;;;;;4.35;2.60;;;8.70;67.30;;;;;;5030730;28;20091;-84
2022/04/17 07:12:54;;;;;;;3.28;2.28;;;8.90;66.90;;;;;;5011941;28;20026;-80
2022/04/17 07:15:20;;;;;;;2.22;1.80;;;9.20;66.60;;;;;;5033912;28;20108;-82
2022/04/17 07:17:46;;;;;;;5.80;2.58;;;9.50;66.30;;;;;;5021563;28;20032;-82
2022/04/17 07:20:12;;;;;;;2.55;1.85;;;9.80;66.00;;;;;;5010801;28;20030;-79
2022/04/17 07:22:41;;;;;;;4.03;2.08;;;10.10;65.50;;;;;;5022367;28;20520;-81
2022/04/17 07:25:07;;;;;;;2.03;1.67;;;10.50;64.90;;;;;;5040153;28;20034;-82
2022/04/17 07:27:41;;;;;;;1.95;1.75;;;10.80;64.40;;;;;;5021107;28;20037;-80
2022/04/17 07:30:10;;;;;;;2.35;1.73;;;11.10;63.70;;;;;;5041941;28;20026;-80
2022/04/17 07:32:35;;;;;;;2.75;1.40;;;11.50;63.60;;;;;;5034192;28;20021;-82
2022/04/17 07:35:01;;;;;;;2.88;1.77;;;11.80;62.90;;;;;;5015647;28;20025;-81
2022/04/17 07:37:27;;;;;;;1.65;1.42;;;12.10;62.50;;;;;;5037806;28;20048;-81
2022/04/17 07:39:53;;;;;;;1.88;1.52;;;12.40;62.20;;;;;;5027280;28;20096;-83
2022/04/17 07:42:20;;;;;;;1.98;1.20;;;12.80;61.60;;;;;;5030455;28;20033;-83
2022/04/17 07:44:48;;;;;;;2.42;1.50;;;13.10;60.70;;;;;;5021593;28;20021;-80
2022/04/17 07:47:13;;;;;;;3.28;1.40;;;13.20;59.80;;;;;;5036151;28;20086;-82
2022/04/17 07:49:39;;;;;;;2.00;1.52;;;13.40;59.20;;;;;;5039383;28;20026;-82
2022/04/17 07:52:05;;;;;;;3.03;1.45;;;13.60;58.70;;;;;;5043145;28;20026;-80
2022/04/17 07:54:30;;;;;;;1.40;1.30;;;13.70;57.80;;;;;;5033380;28;20113;-81
2022/04/17 07:56:56;;;;;;;4.57;1.40;;;13.80;57.50;;;;;;5037439;28;20026;-82
2022/04/17 07:59:24;;;;;;;3.22;1.60;;;14.00;57.20;;;;;;5033276;28;20052;-83
2022/04/17 08:01:50;;;;;;;1.75;1.23;;;14.20;56.70;;;;;;5035172;28;20609;-82
2022/04/17 08:04:16;;;;;;;1.50;1.25;;;14.40;56.40;;;;;;5036261;28;20033;-82
2022/04/17 08:06:42;;;;;;;3.33;1.48;;;14.60;56.10;;;;;;5042419;28;20045;-82
2022/04/17 08:09:07;;;;;;;2.55;1.67;;;14.70;55.90;;;;;;5018064;28;20521;-81
2022/04/17 08:11:34;;;;;;;2.10;1.48;;;14.90;55.40;;;;;;5037633;28;20029;-80
2022/04/17 08:13:59;;;;;;;2.90;1.40;;;15.10;55.00;;;;;;5033186;28;20026;-81
2022/04/17 08:16:25;;;;;;;1.52;1.33;;;15.30;54.60;;;;;;5010441;28;20032;-80
2022/04/17 08:18:51;;;;;;;1.80;1.40;;;15.60;54.50;;;;;;5008066;28;20436;-82
2022/04/17 08:21:16;;;;;;;2.05;1.45;;;15.80;54.10;;;;;;5032734;28;20036;-81
2022/04/17 08:23:42;;;;;;;1.65;1.40;;;16.00;53.50;;;;;;5044403;28;20030;-83
2022/04/17 08:26:08;;;;;;;2.00;1.38;;;16.30;52.90;;;;;;5030764;28;20034;-83
2022/04/17 08:28:33;;;;;;;1.73;1.35;;;16.50;52.60;;;;;;5017761;28;20108;-80
2022/04/17 08:30:59;;;;;;;1.63;1.20;;;16.80;52.60;;;;;;5041510;28;20048;-83
2022/04/17 08:33:26;;;;;;;2.72;1.35;;;17.00;51.40;;;;;;5019189;28;20706;-81
2022/04/17 08:35:57;;;;;;;1.67;1.33;;;17.30;51.50;;;;;;5027965;28;20014;-82
2022/04/17 08:38:23;;;;;;;2.25;1.40;;;17.60;51.20;;;;;;5027524;28;20114;-83
2022/04/17 08:40:49;;;;;;;2.00;1.50;;;17.90;50.50;;;;;;5017740;28;20068;-81
2022/04/17 08:43:18;;;;;;;1.10;1.00;;;18.10;50.00;;;;;;5036145;28;20127;-84
2022/04/17 08:45:43;;;;;;;2.78;1.48;;;18.40;49.70;;;;;;5018461;28;20033;-83
2022/04/17 08:48:09;;;;;;;1.30;1.20;;;18.70;49.40;;;;;;5011514;28;20095;-82
2022/04/17 08:50:35;;;;;;;1.88;1.25;;;18.80;48.80;;;;;;5016354;28;20053;-81
2022/04/17 08:53:02;;;;;;;3.08;1.75;;;19.00;48.20;;;;;;5020412;28;20036;-82
2022/04/17 08:55:28;;;;;;;3.22;1.40;;;19.00;47.60;;;;;;5044396;28;20440;-86
2022/04/17 08:57:54;;;;;;;2.42;1.23;;;19.10;47.20;;;;;;5017823;28;20406;-84
2022/04/17 09:00:20;;;;;;;5.10;1.20;;;19.30;47.00;;;;;;5025380;28;20037;-86
2022/04/17 09:02:47;;;;;;;1.17;1.08;;;19.40;46.70;;;;;;5035200;28;20029;-83
2022/04/17 09:05:15;;;;;;;1.00;1.00;;;19.50;46.50;;;;;;5030056;28;20104;-80
2022/04/17 09:07:47;;;;;;;1.40;1.30;;;19.60;45.60;;;;;;5029431;28;20040;-86
2022/04/17 09:10:24;;;;;;;1.40;1.15;;;19.80;45.10;;;;;;5034154;28;20456;-82
2022/04/17 09:12:53;;;;;;;1.27;1.10;;;20.10;44.20;;;;;;5026684;28;20052;-81
2022/04/17 09:15:23;;;;;;;1.45;1.20;;;20.30;43.70;;;;;;5020524;28;20038;-83
2022/04/17 09:17:48;;;;;;;2.20;1.00;;;20.80;43.20;;;;;;5033650;28;20045;-83
2022/04/17 09:20:25;;;;;;;1.92;1.25;;;21.20;42.50;;;;;;5013183;28;20132;-84
2022/04/17 09:22:53;;;;;;;1.77;1.10;;;21.70;41.20;;;;;;5018358;28;20034;-82
2022/04/17 09:25:22;;;;;;;2.55;1.30;;;22.20;40.70;;;;;;5005670;28;20674;-84
2022/04/17 09:28:05;;;;;;;1.80;1.17;;;22.70;40.00;;;;;;5030726;28;20076;-83
2022/04/17 09:30:39;;;;;;;1.13;0.93;;;23.30;39.20;;;;;;5011022;28;20033;-85
2022/04/17 09:33:10;;;;;;;1.60;1.13;;;23.80;38.70;;;;;;5024620;28;20605;-85
2022/04/17 09:35:36;;;;;;;3.50;1.25;;;24.30;37.90;;;;;;5034659;28;20071;-81
2022/04/17 09:38:06;;;;;;;1.15;1.00;;;24.70;37.10;;;;;;5031109;28;20041;-84
2022/04/17 09:40:33;;;;;;;3.40;1.60;;;25.00;36.50;;;;;;5035100;28;20084;-82
2022/04/17 09:43:16;;;;;;;2.88;1.40;;;25.20;36.10;;;;;;5040952;28;20057;-85
2022/04/17 09:46:01;;;;;;;1.17;0.80;;;25.40;35.90;;;;;;5039561;28;20021;-83
2022/04/17 09:48:37;;;;;;;1.02;0.93;;;25.80;34.90;;;;;;5017750;28;20114;-83
2022/04/17 09:51:24;;;;;;;2.85;1.20;;;25.80;34.50;;;;;;5032887;28;20569;-84
2022/04/17 09:54:00;;;;;;;1.02;0.90;;;25.90;34.70;;;;;;5006666;28;20513;-83
2022/04/17 09:56:46;;;;;;;1.48;1.05;;;26.30;34.70;;;;;;5039877;28;20489;-82
2022/04/17 09:59:21;;;;;;;2.08;1.20;;;26.50;34.30;;;;;;5030650;28;20044;-83
2022/04/17 10:01:52;;;;;;;1.90;1.10;;;26.40;34.10;;;;;;5036243;28;20025;-83
2022/04/17 10:04:20;;;;;;;1.95;1.13;;;26.30;34.00;;;;;;5033534;28;20029;-82
2022/04/17 10:06:47;;;;;;;1.25;1.10;;;26.10;34.20;;;;;;5022522;28;20029;-84
2022/04/17 10:09:13;;;;;;;1.65;0.90;;;25.90;34.10;;;;;;5034610;28;20029;-82
2022/04/17 10:11:40;;;;;;;1.85;1.05;;;25.60;34.10;;;;;;5036979;28;20024;-82
2022/04/17 10:14:07;;;;;;;2.15;1.20;;;25.50;34.00;;;;;;5028052;28;20088;-84
2022/04/17 10:16:34;;;;;;;1.98;1.10;;;25.60;33.70;;;;;;5019606;28;20112;-82
2022/04/17 10:19:05;;;;;;;1.50;1.00;;;25.70;33.10;;;;;;5036351;28;20025;-83
2022/04/17 10:21:35;;;;;;;2.58;0.85;;;25.80;32.90;;;;;;5035825;28;20035;-82
2022/04/17 10:24:03;;;;;;;1.45;1.20;;;26.20;32.90;;;;;;5019693;28;20037;-84
2022/04/17 10:26:41;;;;;;;3.72;1.15;;;26.40;32.70;;;;;;5039511;28;20165;-84
2022/04/17 10:29:11;;;;;;;1.50;0.93;;;26.60;32.60;;;;;;5039118;28;20043;-84
2022/04/17 10:32:04;;;;;;;1.65;0.80;;;26.70;32.60;;;;;;5049941;28;20158;-83
2022/04/17 10:34:51;;;;;;;1.48;0.88;;;26.60;32.40;;;;;;5040871;28;20059;-84
2022/04/17 10:37:28;;;;;;;1.95;1.20;;;26.10;32.80;;;;;;5039267;28;20119;-84
2022/04/17 10:39:54;;;;;;;3.13;1.08;;;25.70;32.70;;;;;;5039100;28;20032;-84
2022/04/17 10:42:22;;;;;;;1.52;1.00;;;25.10;32.80;;;;;;5057400;28;20025;-84
2022/04/17 10:45:05;;;;;;;3.05;1.40;;;24.80;33.40;;;;;;5056902;28;20104;-84
2022/04/17 10:47:31;;;;;;;1.70;0.90;;;24.40;33.30;;;;;;5041970;28;20037;-84
2022/04/17 10:49:57;;;;;;;2.10;1.00;;;23.80;34.20;;;;;;5037881;28;20029;-83
2022/04/17 10:52:31;;;;;;;1.40;1.00;;;23.60;34.90;;;;;;5038155;28;20326;-84
2022/04/17 10:55:08;;;;;;;2.30;1.00;;;23.30;35.20;;;;;;5010699;28;20156;-85
2022/04/17 10:57:44;;;;;;;1.10;0.90;;;23.00;35.30;;;;;;5021884;28;20033;-82
2022/04/17 11:00:36;;;;;;;2.90;1.20;;;22.70;35.70;;;;;;5038304;28;20025;-82
2022/04/17 11:03:09;;;;;;;2.00;1.00;;;22.20;36.00;;;;;;5042027;28;20405;-82
2022/04/17 11:08:25;;;;;;;2.25;1.02;;;21.50;36.90;;;;;;5026668;28;20065;-82
2022/04/17 11:11:00;;;;;;;2.80;1.20;;;21.10;37.20;;;;;;5010894;28;20040;-84
2022/04/17 11:13:27;;;;;;;2.45;1.33;;;20.90;37.40;;;;;;5010945;28;20030;-82
2022/04/17 11:15:56;;;;;;;0.85;0.75;;;20.70;38.30;;;;;;5031450;28;20086;-83
2022/04/17 11:18:29;;;;;;;1.23;1.00;;;20.60;38.20;;;;;;5009151;28;20633;-85
2022/04/17 11:20:55;;;;;;;1.48;1.10;;;20.30;37.80;;;;;;5035267;28;20167;-83
2022/04/17 11:23:49;;;;;;;1.92;1.02;;;20.10;38.30;;;;;;5022818;28;20033;-83
2022/04/17 11:26:15;;;;;;;1.42;1.02;;;20.10;38.50;;;;;;5033549;28;20029;-83
2022/04/17 11:28:41;;;;;;;2.08;0.93;;;19.80;38.50;;;;;;5036677;28;20022;-83
2022/04/17 11:31:08;;;;;;;2.55;1.00;;;19.60;38.70;;;;;;5020065;28;20049;-82
2022/04/17 11:33:33;;;;;;;1.77;0.95;;;19.50;38.90;;;;;;5011187;28;20018;-82
2022/04/17 11:36:00;;;;;;;1.40;0.90;;;19.50;38.90;;;;;;5030383;28;20049;-83
2022/04/17 11:38:27;;;;;;;3.75;0.90;;;19.40;39.00;;;;;;5021932;28;20050;-82
2022/04/17 11:40:52;;;;;;;1.10;0.90;;;19.30;39.10;;;;;;5034665;28;20370;-80
2022/04/17 11:43:19;;;;;;;2.20;0.98;;;19.20;39.20;;;;;;5002126;28;20482;-83
2022/04/17 11:45:46;;;;;;;1.10;0.98;;;19.20;39.50;;;;;;5017862;28;20723;-85
2022/04/17 11:48:14;;;;;;;6.45;3.20;;;19.10;39.20;;;;;;5024476;28;20049;-83
2022/04/17 11:50:41;;;;;;;1.40;0.80;;;19.10;39.30;;;;;;5012395;28;20142;-81
2022/04/17 11:53:17;;;;;;;1.17;0.90;;;19.10;39.10;;;;;;5017381;28;20099;-83
2022/04/17 11:55:45;;;;;;;1.50;0.77;;;19.10;38.90;;;;;;5024462;28;20040;-79
2022/04/17 11:58:13;;;;;;;1.38;0.85;;;19.10;39.10;;;;;;5012757;28;20038;-83
2022/04/17 12:00:39;;;;;;;0.77;0.70;;;19.10;39.20;;;;;;5033953;28;20030;-83
2022/04/17 12:03:06;;;;;;;1.67;0.85;;;19.10;39.20;;;;;;5032040;28;20025;-82
2022/04/17 12:05:34;;;;;;;0.98;0.82;;;19.10;39.00;;;;;;5030326;28;20029;-81
2022/04/17 12:08:09;;;;;;;1.15;0.98;;;19.10;38.90;;;;;;5016043;28;20037;-80
2022/04/17 12:10:38;;;;;;;1.27;1.00;;;19.00;39.00;;;;;;5019043;28;20022;-82
2022/04/17 12:13:17;;;;;;;2.15;0.80;;;19.00;39.20;;;;;;5028562;28;20029;-81
2022/04/17 12:15:44;;;;;;;2.42;0.85;;;19.20;39.20;;;;;;5036508;28;20022;-79
2022/04/17 12:18:10;;;;;;;3.08;0.98;;;19.30;39.30;;;;;;5012294;28;20030;-80
2022/04/17 12:20:38;;;;;;;1.75;1.02;;;19.30;39.70;;;;;;5018794;28;20040;-80
2022/04/17 12:23:03;;;;;;;2.08;0.90;;;19.30;39.10;;;;;;5037758;28;20113;-82
2022/04/17 12:25:29;;;;;;;2.70;1.25;;;19.30;39.00;;;;;;5031295;28;20424;-83
2022/04/17 12:27:55;;;;;;;1.58;0.80;;;19.30;38.90;;;;;;5025746;28;20049;-82
2022/04/17 12:30:24;;;;;;;2.38;1.00;;;19.30;38.90;;;;;;5033115;28;20022;-80
2022/04/17 12:32:51;;;;;;;1.63;0.90;;;19.40;39.80;;;;;;5018385;28;20029;-80
2022/04/17 12:35:22;;;;;;;1.17;0.90;;;19.30;38.80;;;;;;5027552;28;20108;-82
2022/04/17 12:37:48;;;;;;;1.08;0.90;;;19.20;39.00;;;;;;5017375;28;20041;-82
2022/04/17 12:40:18;;;;;;;1.50;0.80;;;19.20;39.30;;;;;;5018760;28;20029;-84
2022/04/17 12:42:44;;;;;;;1.98;1.00;;;19.40;39.30;;;;;;5007000;28;20052;-84
2022/04/17 12:45:21;;;;;;;3.10;1.00;;;19.40;38.90;;;;;;5032250;28;20033;-84
2022/04/17 12:48:04;;;;;;;1.15;0.90;;;19.30;38.60;;;;;;5037792;28;20347;-83
2022/04/17 12:50:29;;;;;;;1.98;1.08;;;19.30;38.50;;;;;;5030097;28;20068;-84
2022/04/17 12:52:57;;;;;;;1.33;1.02;;;19.20;38.90;;;;;;5014611;28;20030;-84
2022/04/17 12:55:34;;;;;;;1.38;1.20;;;19.30;38.90;;;;;;5032655;28;20385;-82
2022/04/17 12:58:01;;;;;;;2.45;1.00;;;19.30;38.40;;;;;;5026161;28;20080;-84
2022/04/17 13:00:29;;;;;;;2.60;1.10;;;19.30;38.80;;;;;;5005134;28;20113;-84
2022/04/17 13:03:12;;;;;;;1.67;0.90;;;19.30;38.60;;;;;;5016396;28;20505;-81
2022/04/17 13:05:38;;;;;;;2.30;0.90;;;19.20;38.50;;;;;;5006023;28;20065;-83
2022/04/17 13:08:05;;;;;;;1.67;1.08;;;19.20;38.70;;;;;;5035746;28;20097;-83